Time;durP1;ratioP1;P1;durP2;ratioP2;P2;SDS_P1;SDS_P2;PMS_P1;PMS_P2;Temp;Humidity;BMP_temperature;BMP_pressure;BME280_temperature;BME280_humidity;BME280_pressure;Samples;Min_cycle;Max_cycle;Signal;HPM_P1;HPM_P2
2021/08/17 00:00:41;;;;;;;13.98;7.03;;;;;;;13.09;100.00;100790.00;5096413;28;20082;-62
2021/08/17 00:03:28;;;;;;;13.65;7.63;;;;;;;12.98;100.00;100781.31;5096059;28;20066;-62
2021/08/17 00:06:12;;;;;;;10.43;6.50;;;;;;;12.91;100.00;100791.72;5096115;28;20054;-62
2021/08/17 00:08:59;;;;;;;15.05;6.70;;;;;;;12.87;100.00;100789.47;5096224;28;20047;-63
2021/08/17 00:11:43;;;;;;;12.57;6.40;;;;;;;12.77;100.00;100793.16;5095871;28;20413;-62
2021/08/17 00:14:27;;;;;;;11.65;6.32;;;;;;;12.73;100.00;100791.78;5094801;28;20515;-62
2021/08/17 00:17:11;;;;;;;13.77;6.22;;;;;;;12.70;100.00;100802.78;5095103;28;20051;-63
2021/08/17 00:19:55;;;;;;;14.13;7.03;;;;;;;12.64;100.00;100784.63;5096276;28;20058;-63
2021/08/17 00:22:39;;;;;;;16.13;7.50;;;;;;;12.66;100.00;100796.00;5094660;28;20047;-62
2021/08/17 00:25:23;;;;;;;13.95;6.10;;;;;;;12.64;100.00;100796.19;5094494;28;20089;-62
2021/08/17 00:28:07;;;;;;;14.70;7.03;;;;;;;12.64;100.00;100798.84;5095636;28;20047;-63
2021/08/17 00:30:51;;;;;;;14.25;6.35;;;;;;;12.66;100.00;100802.22;5094582;28;20082;-61
2021/08/17 00:33:35;;;;;;;16.50;6.55;;;;;;;12.65;100.00;100811.22;5095703;28;20047;-62
2021/08/17 00:36:19;;;;;;;12.32;6.63;;;;;;;12.59;100.00;100810.97;5094351;28;20097;-62
2021/08/17 00:39:05;;;;;;;12.57;6.07;;;;;;;12.51;100.00;100805.50;5095562;28;20580;-62
2021/08/17 00:41:53;;;;;;;12.95;6.70;;;;;;;12.47;100.00;100807.59;5095590;28;20047;-62
2021/08/17 00:44:37;;;;;;;16.15;7.10;;;;;;;12.44;100.00;100807.91;5094215;28;20626;-62
2021/08/17 00:47:21;;;;;;;13.25;6.97;;;;;;;12.38;100.00;100807.63;5095471;28;20096;-61
2021/08/17 00:50:05;;;;;;;15.25;7.00;;;;;;;12.37;100.00;100805.91;5094430;28;20055;-62
2021/08/17 00:52:50;;;;;;;14.65;6.53;;;;;;;12.26;100.00;100804.25;5094911;28;20078;-62
2021/08/17 00:55:34;;;;;;;13.77;7.20;;;;;;;12.21;100.00;100803.81;5093930;28;20513;-62
2021/08/17 00:58:19;;;;;;;16.58;7.22;;;;;;;12.18;100.00;100804.13;5094036;28;20181;-62
2021/08/17 01:01:03;;;;;;;11.13;6.53;;;;;;;12.11;100.00;100805.69;5094196;28;20050;-62
2021/08/17 01:03:47;;;;;;;13.27;6.78;;;;;;;12.08;100.00;100799.78;5095104;28;20132;-64
2021/08/17 01:06:31;;;;;;;13.30;7.22;;;;;;;12.01;100.00;100810.19;5093989;28;20051;-62
2021/08/17 01:09:15;;;;;;;12.20;6.47;;;;;;;11.96;100.00;100806.22;5095085;28;20090;-62
2021/08/17 01:12:00;;;;;;;14.40;6.85;;;;;;;11.92;100.00;100816.38;5095051;28;20177;-61
2021/08/17 01:14:45;;;;;;;11.05;6.30;;;;;;;11.88;100.00;100809.59;5094557;28;20047;-62
2021/08/17 01:17:29;;;;;;;12.35;6.55;;;;;;;11.83;100.00;100813.66;5094958;28;20070;-62
2021/08/17 01:20:17;;;;;;;16.50;7.03;;;;;;;11.79;100.00;100823.78;5093882;28;20185;-62
2021/08/17 01:23:05;;;;;;;16.73;7.22;;;;;;;11.80;100.00;100816.63;5093039;28;20469;-62
2021/08/17 01:25:49;;;;;;;14.05;6.75;;;;;;;11.78;100.00;100824.75;5094001;28;20039;-62
2021/08/17 01:28:33;;;;;;;14.60;6.47;;;;;;;11.75;100.00;100829.53;5094732;28;20142;-61
2021/08/17 01:31:17;;;;;;;13.68;6.65;;;;;;;11.78;100.00;100829.28;5093400;28;20047;-65
2021/08/17 01:34:00;;;;;;;14.45;6.97;;;;;;;11.77;100.00;100833.75;5094469;28;20420;-65
2021/08/17 01:36:44;;;;;;;10.88;6.00;;;;;;;11.70;100.00;100838.00;5094222;28;20047;-62
2021/08/17 01:39:28;;;;;;;12.98;6.65;;;;;;;11.72;100.00;100836.00;5094255;28;20051;-62
2021/08/17 01:42:12;;;;;;;12.45;6.25;;;;;;;11.69;100.00;100830.94;5094315;28;20051;-62
2021/08/17 01:44:58;;;;;;;11.02;6.15;;;;;;;11.66;100.00;100831.22;5094063;28;20047;-65
2021/08/17 01:47:42;;;;;;;10.45;5.50;;;;;;;11.62;100.00;100827.13;5094061;28;20078;-62
2021/08/17 01:50:26;;;;;;;16.15;7.18;;;;;;;11.60;100.00;100830.91;5094020;28;20508;-62
2021/08/17 01:53:10;;;;;;;14.52;6.70;;;;;;;11.58;100.00;100839.06;5093034;28;20558;-62
2021/08/17 01:55:55;;;;;;;15.48;7.20;;;;;;;11.54;100.00;100837.63;5093104;28;20500;-65
2021/08/17 01:58:41;;;;;;;13.18;6.68;;;;;;;11.54;100.00;100836.75;5092882;28;20039;-62
2021/08/17 02:01:24;;;;;;;14.13;6.63;;;;;;;11.56;100.00;100838.31;5078487;28;20566;-62
2021/08/17 02:04:09;;;;;;;14.52;6.57;;;;;;;11.47;100.00;100847.16;5093317;28;20512;-65
2021/08/17 02:06:52;;;;;;;12.82;6.63;;;;;;;11.39;100.00;100838.97;5092948;28;20089;-64
2021/08/17 02:09:36;;;;;;;18.80;6.85;;;;;;;11.37;100.00;100848.94;5092969;28;20063;-62
2021/08/17 02:12:20;;;;;;;11.52;5.80;;;;;;;11.38;100.00;100837.28;5092650;28;20176;-62
2021/08/17 02:15:05;;;;;;;19.02;6.55;;;;;;;11.35;100.00;100836.72;5093756;28;20196;-62
2021/08/17 02:17:49;;;;;;;12.13;5.78;;;;;;;11.27;100.00;100840.06;5092839;28;20093;-62
2021/08/17 02:20:32;;;;;;;12.60;6.63;;;;;;;11.25;100.00;100847.34;5092857;28;20051;-65
2021/08/17 02:23:16;;;;;;;13.70;6.22;;;;;;;11.24;100.00;100844.81;5093786;28;20213;-62
2021/08/17 02:26:00;;;;;;;11.75;6.40;;;;;;;11.25;100.00;100852.69;5093570;28;20508;-62
2021/08/17 02:28:44;;;;;;;13.20;6.55;;;;;;;11.16;100.00;100850.81;5093753;28;20545;-62
2021/08/17 02:31:28;;;;;;;13.18;7.18;;;;;;;11.16;100.00;100858.84;5092966;28;20503;-63
2021/08/17 02:34:12;;;;;;;16.02;6.90;;;;;;;11.19;100.00;100863.06;5093096;28;20055;-65
2021/08/17 02:36:56;;;;;;;12.50;6.97;;;;;;;11.17;100.00;100865.84;5093446;28;20094;-62
2021/08/17 02:39:40;;;;;;;17.70;7.10;;;;;;;11.21;100.00;100872.63;5093594;28;20058;-65
2021/08/17 02:42:24;;;;;;;;;;;;;;;11.19;100.00;100863.94;5093922;28;20418;-64
2021/08/17 02:45:08;;;;;;;21.10;7.23;;;;;;;11.20;100.00;100870.94;5078192;28;19918;-64
2021/08/17 02:47:57;;;;;;;15.73;7.32;;;;;;;11.21;100.00;100875.31;5092529;28;20138;-63
2021/08/17 02:50:41;;;;;;;16.70;7.68;;;;;;;11.23;100.00;100870.69;5092135;28;20046;-64
2021/08/17 02:53:25;;;;;;;20.95;8.38;;;;;;;11.24;100.00;100868.84;5092648;28;20101;-64
2021/08/17 02:56:08;;;;;;;15.40;7.85;;;;;;;11.25;100.00;100862.53;5093049;28;20051;-64
2021/08/17 02:58:53;;;;;;;15.10;7.93;;;;;;;11.26;100.00;100862.38;5093349;28;20123;-64
2021/08/17 03:01:37;;;;;;;15.98;8.10;;;;;;;11.28;100.00;100856.94;5092054;28;20097;-64
2021/08/17 03:04:21;;;;;;;17.67;7.97;;;;;;;11.28;100.00;100860.41;5093547;28;20047;-64
2021/08/17 03:07:05;;;;;;;17.48;7.47;;;;;;;11.27;100.00;100864.06;5093338;28;20090;-64
2021/08/17 03:09:49;;;;;;;19.92;7.65;;;;;;;11.24;100.00;100855.47;5093048;28;20054;-64
2021/08/17 03:12:32;;;;;;;14.15;7.80;;;;;;;11.24;100.00;100853.69;5077701;28;20050;-64
2021/08/17 03:15:16;;;;;;;17.88;7.60;;;;;;;11.21;100.00;100853.09;5092023;28;20128;-64
2021/08/17 03:18:01;;;;;;;20.38;7.88;;;;;;;11.25;100.00;100852.69;5092959;28;20051;-64
2021/08/17 03:20:45;;;;;;;21.60;7.43;;;;;;;11.22;100.00;100852.97;5093207;28;20405;-64
2021/08/17 03:23:29;;;;;;;18.95;7.90;;;;;;;11.16;100.00;100856.16;5093200;28;20439;-63
2021/08/17 03:26:13;;;;;;;15.75;7.38;;;;;;;11.11;100.00;100861.06;5092077;28;20177;-64
2021/08/17 03:28:57;;;;;;;17.48;7.57;;;;;;;11.07;100.00;100862.28;5092818;28;20047;-64
2021/08/17 03:31:41;;;;;;;20.45;9.10;;;;;;;11.05;100.00;100856.25;5092102;28;20055;-63
2021/08/17 03:34:25;;;;;;;13.93;6.97;;;;;;;10.99;100.00;100864.81;5091727;28;20063;-64
2021/08/17 03:37:09;;;;;;;15.10;7.65;;;;;;;10.93;100.00;100861.78;5092296;28;20444;-64
2021/08/17 03:39:53;;;;;;;19.20;8.93;;;;;;;10.95;100.00;100866.03;5092728;28;20047;-64
2021/08/17 03:42:38;;;;;;;22.23;8.85;;;;;;;11.00;100.00;100874.50;5091984;28;20047;-63
2021/08/17 03:45:22;;;;;;;31.48;10.20;;;;;;;11.03;100.00;100879.56;5091738;28;20452;-64
2021/08/17 03:48:06;;;;;;;20.20;9.35;;;;;;;11.04;100.00;100877.75;5096276;28;20113;-64
2021/08/17 03:50:50;;;;;;;20.73;8.80;;;;;;;11.03;100.00;100884.03;5096592;28;20090;-64
2021/08/17 03:53:37;;;;;;;;;;;;;;;11.05;100.00;100882.09;5081643;28;20089;-64
2021/08/17 03:56:21;;;;;;;20.75;9.23;;;;;;;11.01;100.00;100878.84;5095145;28;19923;-64
2021/08/17 03:59:06;;;;;;;27.42;10.50;;;;;;;11.04;100.00;100881.25;5095499;28;20101;-64
2021/08/17 04:01:50;;;;;;;23.67;9.98;;;;;;;11.04;100.00;100881.25;5096136;28;20067;-64
2021/08/17 04:04:34;;;;;;;20.50;9.23;;;;;;;11.01;100.00;100883.31;5096060;28;20054;-64
2021/08/17 04:07:18;;;;;;;24.67;10.48;;;;;;;10.98;100.00;100878.28;5095051;28;20117;-64
2021/08/17 04:10:03;;;;;;;27.30;10.05;;;;;;;11.01;100.00;100881.53;5096238;28;20062;-64
2021/08/17 04:12:47;;;;;;;25.92;9.73;;;;;;;11.05;100.00;100892.78;5095332;28;20046;-64
2021/08/17 04:15:32;;;;;;;22.25;11.00;;;;;;;11.04;100.00;100891.91;5094743;28;20082;-64
2021/08/17 04:18:15;;;;;;;29.05;11.73;;;;;;;11.07;100.00;100896.97;5094876;28;20192;-64
2021/08/17 04:20:59;;;;;;;24.45;10.77;;;;;;;11.09;100.00;100911.06;5094750;28;20128;-64
2021/08/17 04:23:43;;;;;;;28.30;10.63;;;;;;;11.10;100.00;100909.22;5095762;28;20079;-64
2021/08/17 04:26:27;;;;;;;27.30;11.90;;;;;;;11.12;100.00;100918.78;5094960;28;20046;-64
2021/08/17 04:29:11;;;;;;;27.27;11.50;;;;;;;11.11;100.00;100919.78;5095807;28;20046;-64
2021/08/17 04:31:56;;;;;;;26.63;11.90;;;;;;;11.13;100.00;100912.47;5097548;28;20508;-66
2021/08/17 04:34:40;;;;;;;27.45;11.98;;;;;;;11.16;100.00;100916.72;5095533;28;20051;-65
2021/08/17 04:37:24;;;;;;;25.50;11.32;;;;;;;11.13;100.00;100917.81;5094617;28;20042;-65
2021/08/17 04:40:09;;;;;;;25.67;11.38;;;;;;;11.11;100.00;100911.78;5094699;28;20046;-65
2021/08/17 04:42:53;;;;;;;25.65;10.85;;;;;;;11.13;100.00;100915.16;5095336;28;20101;-65
2021/08/17 04:45:37;;;;;;;23.95;10.35;;;;;;;11.14;100.00;100913.31;5094169;28;20089;-64
2021/08/17 04:48:21;;;;;;;24.52;10.57;;;;;;;11.18;100.00;100914.75;5094471;28;20542;-65
2021/08/17 04:51:05;;;;;;;25.02;10.52;;;;;;;11.15;100.00;100915.84;5094433;28;20134;-65
2021/08/17 04:53:49;;;;;;;26.23;11.00;;;;;;;11.17;100.00;100913.88;5108529;28;20042;-65
2021/08/17 04:56:33;;;;;;;;;;;;;;;11.16;100.00;100928.22;5094687;28;20098;-66
2021/08/17 04:59:17;;;;;;;28.20;11.48;;;;;;;11.19;100.00;100913.78;5094477;28;20323;-65
2021/08/17 05:02:00;;;;;;;25.20;10.35;;;;;;;11.18;100.00;100915.59;5094265;28;20131;-65
2021/08/17 05:04:44;;;;;;;22.83;10.50;;;;;;;11.20;100.00;100916.31;5094081;28;20404;-66
2021/08/17 05:07:28;;;;;;;32.83;11.35;;;;;;;11.18;100.00;100915.59;5094136;28;20047;-65
2021/08/17 05:10:17;;;;;;;25.95;11.15;;;;;;;11.21;100.00;100926.00;5095087;28;20050;-66
2021/08/17 05:13:02;;;;;;;28.33;12.80;;;;;;;11.21;100.00;100923.34;5093733;28;20531;-65
2021/08/17 05:15:46;;;;;;;28.73;12.88;;;;;;;11.26;100.00;100929.13;5094063;28;20504;-66
2021/08/17 05:18:32;;;;;;;34.80;13.55;;;;;;;11.34;100.00;100931.97;5094960;28;20554;-66
2021/08/17 05:21:16;;;;;;;32.85;13.23;;;;;;;11.37;100.00;100937.03;5093785;28;20046;-65
2021/08/17 05:24:00;;;;;;;27.13;12.35;;;;;;;11.40;100.00;100941.28;5094728;28;20082;-66
2021/08/17 05:26:44;;;;;;;31.15;12.27;;;;;;;11.45;100.00;100942.56;5094182;28;20492;-65
2021/08/17 05:29:28;;;;;;;35.10;12.20;;;;;;;11.50;100.00;100948.38;5094619;28;20078;-66
2021/08/17 05:32:12;;;;;;;28.75;12.35;;;;;;;11.57;100.00;100946.84;5094450;28;20520;-65
2021/08/17 05:34:56;;;;;;;26.23;11.63;;;;;;;11.62;100.00;100941.97;5094243;28;20070;-66
2021/08/17 05:37:40;;;;;;;32.50;12.38;;;;;;;11.75;100.00;100939.91;5094583;28;20066;-66
2021/08/17 05:40:24;;;;;;;30.20;12.25;;;;;;;11.83;100.00;100945.44;5094656;28;20054;-66
2021/08/17 05:43:07;;;;;;;27.85;12.70;;;;;;;11.97;100.00;100947.69;5079138;28;20248;-66
2021/08/17 05:45:51;;;;;;;22.17;11.35;;;;;;;12.06;100.00;100941.53;5094097;28;20051;-66
2021/08/17 05:48:35;;;;;;;26.83;12.10;;;;;;;12.18;100.00;100945.78;5094340;28;20070;-65
2021/08/17 05:51:19;;;;;;;24.33;11.35;;;;;;;12.31;100.00;100958.91;5093306;28;20123;-66
2021/08/17 05:54:03;;;;;;;28.50;11.90;;;;;;;12.36;100.00;100941.44;5093926;28;20128;-65
2021/08/17 05:56:47;;;;;;;24.10;11.40;;;;;;;12.54;100.00;100937.09;5094128;28;20090;-64
2021/08/17 05:59:32;;;;;;;26.63;12.88;;;;;;;12.66;100.00;100946.66;5094180;28;20101;-66
2021/08/17 06:02:16;;;;;;;22.13;11.98;;;;;;;12.80;100.00;100948.91;5093123;28;20173;-65
2021/08/17 06:05:00;;;;;;;22.45;10.48;;;;;;;12.94;100.00;100956.56;5092975;28;20515;-66
2021/08/17 06:07:48;;;;;;;24.38;10.88;;;;;;;13.18;100.00;100948.91;5094045;28;20054;-66
2021/08/17 06:10:32;;;;;;;26.23;11.88;;;;;;;13.39;100.00;100958.44;5094105;28;20089;-66
2021/08/17 06:13:16;;;;;;;21.05;11.52;;;;;;;13.29;100.00;100951.41;5093909;28;20459;-66
2021/08/17 06:16:00;;;;;;;25.08;11.38;;;;;;;13.37;100.00;100967.59;5092760;28;20043;-66
2021/08/17 06:18:43;;;;;;;28.00;11.63;;;;;;;13.33;100.00;100959.00;5093840;28;20583;-65
2021/08/17 06:21:28;;;;;;;25.63;11.55;;;;;;;13.35;100.00;100961.53;5093555;28;20139;-65
2021/08/17 06:24:11;;;;;;;22.20;11.15;;;;;;;13.35;100.00;100962.38;5092301;28;20507;-65
2021/08/17 06:26:55;;;;;;;25.80;10.70;;;;;;;13.32;100.00;100972.53;5092742;28;20062;-66
2021/08/17 06:29:39;;;;;;;25.10;11.45;;;;;;;13.32;100.00;100973.38;5092715;28;20088;-65
2021/08/17 06:32:23;;;;;;;25.23;12.00;;;;;;;13.36;100.00;100973.94;5092432;28;20132;-66
2021/08/17 06:35:07;;;;;;;24.35;11.48;;;;;;;13.45;100.00;100975.75;5092478;28;20051;-66
2021/08/17 06:37:51;;;;;;;20.08;10.88;;;;;;;13.51;100.00;100973.34;5093306;28;20421;-66
2021/08/17 06:40:35;;;;;;;21.45;11.82;;;;;;;13.56;100.00;100971.03;5093286;28;20082;-66
2021/08/17 06:43:19;;;;;;;20.35;11.70;;;;;;;13.62;100.00;100980.31;5092823;28;20503;-66
2021/08/17 06:46:03;;;;;;;22.50;11.35;;;;;;;13.68;100.00;100975.22;5092736;28;20039;-66
2021/08/17 06:48:48;;;;;;;23.33;11.93;;;;;;;13.67;100.00;100972.72;5092692;28;20093;-66
2021/08/17 06:51:31;;;;;;;21.08;11.05;;;;;;;13.75;100.00;100964.78;5092275;28;20529;-66
2021/08/17 06:54:15;;;;;;;22.70;11.85;;;;;;;13.81;100.00;100964.19;5092341;28;20077;-66
2021/08/17 06:56:59;;;;;;;21.77;11.23;;;;;;;13.95;100.00;100966.34;5078068;28;20047;-66
2021/08/17 06:59:43;;;;;;;28.67;11.63;;;;;;;14.11;100.00;100956.69;5106755;28;20046;-65
2021/08/17 07:02:27;;;;;;;21.48;11.40;;;;;;;14.14;100.00;100963.56;5092391;28;20051;-66
2021/08/17 07:05:14;;;;;;;21.38;11.70;;;;;;;14.27;100.00;100969.47;5093295;28;20043;-66
2021/08/17 07:07:58;;;;;;;23.27;11.95;;;;;;;14.41;100.00;100960.91;5093008;28;20097;-65
2021/08/17 07:10:42;;;;;;;19.80;11.25;;;;;;;14.51;100.00;100959.00;5093007;28;20043;-66
2021/08/17 07:13:26;;;;;;;22.98;11.52;;;;;;;14.59;100.00;100972.50;5091883;28;20078;-66
2021/08/17 07:16:10;;;;;;;22.95;11.32;;;;;;;14.71;100.00;100976.63;5091918;28;20416;-66
2021/08/17 07:18:54;;;;;;;22.00;11.55;;;;;;;14.81;100.00;100970.16;5093099;28;20050;-66
2021/08/17 07:21:38;;;;;;;22.98;11.95;;;;;;;14.79;100.00;100979.41;5093411;28;20051;-66
2021/08/17 07:24:22;;;;;;;23.15;11.63;;;;;;;14.74;100.00;100966.44;5096692;28;20047;-66
2021/08/17 07:27:06;;;;;;;25.13;11.98;;;;;;;14.68;100.00;100968.91;5097008;28;20043;-65
2021/08/17 07:29:50;;;;;;;20.90;12.27;;;;;;;14.63;100.00;100963.13;5097050;28;20069;-66
2021/08/17 07:32:34;;;;;;;22.58;11.93;;;;;;;14.70;100.00;100957.00;5110304;28;20054;-66
2021/08/17 07:35:20;;;;;;;23.98;11.23;;;;;;;14.64;100.00;100960.31;5095812;28;20531;-66
2021/08/17 07:38:04;;;;;;;24.38;13.02;;;;;;;14.65;100.00;100956.63;5096862;28;20093;-65
2021/08/17 07:40:48;;;;;;;22.15;12.65;;;;;;;14.82;100.00;100962.97;5110064;28;20521;-66
2021/08/17 07:43:32;;;;;;;21.98;11.90;;;;;;;14.92;100.00;100966.41;5095694;28;20066;-65
2021/08/17 07:46:16;;;;;;;24.98;12.93;;;;;;;15.01;100.00;100969.00;5096770;28;20047;-65
2021/08/17 07:48:59;;;;;;;24.40;12.20;;;;;;;15.09;100.00;100981.69;5095580;28;20059;-66
2021/08/17 07:51:43;;;;;;;20.23;11.68;;;;;;;15.31;100.00;100982.03;5096608;28;20062;-66
2021/08/17 07:54:27;;;;;;;21.58;12.07;;;;;;;15.48;100.00;100972.22;5095358;28;20055;-64
2021/08/17 07:57:11;;;;;;;22.85;12.30;;;;;;;15.80;100.00;100979.50;5109862;28;20097;-66
2021/08/17 07:59:57;;;;;;;23.27;12.43;;;;;;;16.20;97.14;100974.28;5095475;28;20063;-65
2021/08/17 08:02:40;;;;;;;22.20;12.10;;;;;;;16.36;92.46;100963.59;5095397;28;20159;-65
2021/08/17 08:05:24;;;;;;;21.67;11.40;;;;;;;16.70;88.51;100975.09;5095244;28;20047;-66
2021/08/17 08:08:08;;;;;;;17.60;10.95;;;;;;;17.03;87.63;100966.03;5109758;28;20123;-65
2021/08/17 08:10:52;;;;;;;19.45;11.57;;;;;;;17.40;87.21;100969.06;5096202;28;20162;-63
2021/08/17 08:13:36;;;;;;;17.88;11.27;;;;;;;17.66;87.05;100966.13;5095844;28;20562;-66
2021/08/17 08:16:20;;;;;;;18.67;10.73;;;;;;;17.51;79.92;100976.78;5095810;28;20097;-65
2021/08/17 08:19:04;;;;;;;18.98;11.65;;;;;;;17.49;81.98;100972.59;5096121;28;20094;-66
2021/08/17 08:21:48;;;;;;;21.08;11.52;;;;;;;17.57;82.30;100981.50;5095063;28;20062;-66
2021/08/17 08:24:32;;;;;;;21.33;11.30;;;;;;;17.17;81.07;100973.44;5095543;28;20101;-66
2021/08/17 08:27:16;;;;;;;19.45;12.07;;;;;;;17.38;80.50;100981.88;5094960;28;20039;-66
2021/08/17 08:30:00;;;;;;;21.27;12.70;;;;;;;17.20;80.88;100986.56;5094873;28;20051;-66
2021/08/17 08:32:44;;;;;;;21.80;12.20;;;;;;;17.33;82.28;100981.50;5093821;28;20043;-66
2021/08/17 08:35:29;;;;;;;19.63;12.15;;;;;;;17.57;82.96;100992.28;5094622;28;20074;-66
2021/08/17 08:38:12;;;;;;;21.67;12.30;;;;;;;17.78;81.16;100984.47;5108918;28;20055;-66
2021/08/17 08:40:56;;;;;;;23.15;11.85;;;;;;;17.71;79.87;100983.47;5095627;28;20428;-66
2021/08/17 08:43:42;;;;;;;23.60;11.85;;;;;;;17.63;80.15;100986.22;5109067;28;20055;-66
2021/08/17 08:46:29;;;;;;;21.42;12.55;;;;;;;17.51;81.54;100975.97;5095337;28;20065;-66
2021/08/17 08:49:13;;;;;;;22.55;13.13;;;;;;;17.41;83.88;100973.41;5094152;28;20050;-66
2021/08/17 08:52:00;;;;;;;22.98;12.43;;;;;;;17.44;81.50;100974.94;5095417;28;20124;-66
2021/08/17 08:54:44;;;;;;;22.55;12.15;;;;;;;17.15;84.88;100980.00;5094012;28;20062;-66
2021/08/17 08:57:28;;;;;;;22.67;12.35;;;;;;;16.90;82.54;100992.59;5094211;28;20165;-66
2021/08/17 09:00:13;;;;;;;19.42;11.23;;;;;;;16.96;82.57;100986.56;5094428;28;20078;-66
2021/08/17 09:02:57;;;;;;;16.25;10.45;;;;;;;16.85;83.50;100994.97;5094953;28;20503;-66
2021/08/17 09:05:51;;;;;;;17.17;11.20;;;;;;;17.32;83.79;100987.06;5094071;28;20047;-66
2021/08/17 09:08:35;;;;;;;20.52;11.38;;;;;;;17.48;79.53;100987.91;5094131;28;20116;-66
2021/08/17 09:11:21;;;;;;;19.83;12.10;;;;;;;18.06;78.89;100974.94;5095116;28;20572;-66
2021/08/17 09:14:27;;;;;;;15.60;9.75;;;;;;;18.06;74.56;100982.19;5093861;28;20123;-66
2021/08/17 09:17:11;;;;;;;19.02;11.43;;;;;;;17.88;74.69;100979.72;5094654;28;20553;-66
2021/08/17 09:19:55;;;;;;;19.73;10.52;;;;;;;18.12;74.91;100968.00;5093902;28;20043;-66
2021/08/17 09:22:41;;;;;;;20.23;11.68;;;;;;;18.42;73.87;100968.03;5108285;28;20093;-66
2021/08/17 09:25:32;;;;;;;19.45;11.30;;;;;;;18.78;69.51;100963.75;5093414;28;20126;-66
2021/08/17 09:28:43;;;;;;;20.08;11.20;;;;;;;18.43;65.26;100964.31;5093773;28;20055;-66
2021/08/17 09:31:38;;;;;;;17.00;10.68;;;;;;;18.01;69.07;100955.72;5094598;28;20043;-66
2021/08/17 09:34:29;;;;;;;18.05;11.35;;;;;;;18.08;70.89;100954.00;5094205;28;20042;-66
2021/08/17 09:37:14;;;;;;;18.23;11.35;;;;;;;18.40;71.83;100943.06;5094263;28;20412;-67
2021/08/17 09:40:00;;;;;;;20.63;11.77;;;;;;;18.30;68.63;100947.84;5093109;28;20051;-68
2021/08/17 09:42:47;;;;;;;21.58;12.32;;;;;;;18.38;70.40;100947.81;5093166;28;20046;-66
2021/08/17 09:45:33;;;;;;;18.85;11.80;;;;;;;18.24;70.26;100953.91;5107392;28;20081;-66
2021/08/17 09:48:28;;;;;;;23.88;11.52;;;;;;;18.33;69.95;100952.06;5094399;28;20127;-67
2021/08/17 09:51:30;;;;;;;17.17;10.45;;;;;;;18.41;68.09;100939.34;5093599;28;20531;-66
2021/08/17 09:54:16;;;;;;;16.88;10.85;;;;;;;18.70;68.32;100939.50;5092861;28;20083;-67
2021/08/17 09:57:04;;;;;;;16.70;11.25;;;;;;;19.01;66.18;100937.56;5092860;28;20051;-67
2021/08/17 09:59:48;;;;;;;18.77;10.95;;;;;;;19.05;65.18;100944.25;5093900;28;20127;-67
2021/08/17 10:02:32;;;;;;;17.27;10.35;;;;;;;19.22;63.75;100953.94;5094032;28;20143;-67
2021/08/17 10:05:16;;;;;;;18.38;11.00;;;;;;;19.31;65.35;100936.63;5093779;28;20109;-66
2021/08/17 10:08:00;;;;;;;17.55;10.23;;;;;;;19.26;64.17;100936.31;5107230;28;20143;-66
2021/08/17 10:10:46;;;;;;;17.42;10.20;;;;;;;19.98;62.75;100930.94;5094088;28;20059;-66
2021/08/17 10:13:33;;;;;;;15.90;9.30;;;;;;;20.56;59.04;100938.13;5092835;28;20413;-67
2021/08/17 10:16:18;;;;;;;15.68;9.85;;;;;;;20.23;59.36;100926.91;5092752;28;20050;-66
2021/08/17 10:19:02;;;;;;;16.77;10.15;;;;;;;21.53;56.80;100909.16;5092636;28;20512;-66
2021/08/17 10:21:49;;;;;;;17.73;9.18;;;;;;;21.53;56.80;100909.16;5092870;28;20131;-66
2021/08/17 10:24:40;;;;;;;15.80;10.15;;;;;;;23.09;50.86;100909.72;5078130;28;20042;-66
2021/08/17 10:27:33;;;;;;;14.90;9.75;;;;;;;22.83;47.95;100912.44;5093726;28;20046;-66
2021/08/17 10:30:22;;;;;;;16.40;9.18;;;;;;;23.29;48.15;100903.25;5093394;28;20121;-64
2021/08/17 10:33:06;;;;;;;13.38;8.60;;;;;;;23.91;48.03;100891.81;5086943;22;20055;-67
2021/08/17 10:35:52;;;;;;;11.75;8.07;;;;;;;25.06;47.38;100894.09;5072351;28;20122;-67
2021/08/17 10:38:42;;;;;;;10.90;7.72;;;;;;;25.91;42.69;100888.63;5073485;28;20098;-68
2021/08/17 10:41:31;;;;;;;10.32;7.85;;;;;;;25.89;42.04;100879.84;5072028;28;20143;-68
2021/08/17 10:44:31;;;;;;;8.85;6.38;;;;;;;25.08;38.73;100887.34;5038232;28;20056;-67
2021/08/17 10:47:33;;;;;;;10.18;7.00;;;;;;;24.06;41.70;100882.31;5053325;28;20171;-67
2021/08/17 10:50:31;;;;;;;9.98;7.00;;;;;;;24.77;41.31;100868.31;5052260;28;20541;-64
2021/08/17 10:53:48;;;;;;;10.63;6.93;;;;;;;26.39;37.43;100865.72;5051952;28;20044;-67
2021/08/17 10:56:36;;;;;;;8.05;6.22;;;;;;;27.65;35.08;100868.66;5051441;28;20099;-67
2021/08/17 10:59:39;;;;;;;10.30;7.13;;;;;;;26.55;36.89;100867.00;5056314;28;20043;-67
2021/08/17 11:02:23;;;;;;;10.23;6.90;;;;;;;27.18;38.08;100856.06;5055886;28;20052;-67
2021/08/17 11:05:07;;;;;;;;;;;;;;;27.73;34.81;100848.28;5056627;28;20070;-67
2021/08/17 11:07:51;;;;;;;8.25;5.82;;;;;;;26.56;35.79;100846.78;5056921;28;19920;-67
2021/08/17 11:10:35;;;;;;;;;;;;;;;26.67;32.34;100851.44;5056231;28;20052;-67
2021/08/17 11:13:23;;;;;;;5.80;4.70;;;;;;;27.70;32.57;100844.09;5056821;28;20026;-67
2021/08/17 11:16:13;;;;;;;6.88;5.05;;;;;;;25.98;33.41;100848.41;5055692;28;20141;-67
2021/08/17 11:18:59;;;;;;;7.40;5.22;;;;;;;27.01;32.97;100841.38;5055681;28;20059;-67
2021/08/17 11:21:46;;;;;;;5.55;4.72;;;;;;;27.30;31.10;100854.16;5055523;28;20052;-67
2021/08/17 11:24:53;;;;;;;6.05;4.68;;;;;;;28.98;27.21;100834.28;5069911;28;20043;-66
2021/08/17 11:27:40;;;;;;;5.97;4.45;;;;;;;27.37;30.32;100841.19;5055534;28;20174;-67
2021/08/17 11:30:24;;;;;;;5.57;4.68;;;;;;;28.95;29.17;100824.63;5055749;28;20055;-67
2021/08/17 11:33:08;;;;;;;6.40;4.95;;;;;;;30.14;28.67;100830.19;5055258;28;20147;-67
2021/08/17 11:35:52;;;;;;;8.43;4.53;;;;;;;28.66;28.17;100823.00;5055537;28;20406;-67
2021/08/17 11:38:36;;;;;;;6.25;4.85;;;;;;;29.48;27.16;100826.78;5055476;28;20047;-67
2021/08/17 11:41:29;;;;;;;8.50;5.53;;;;;;;30.94;28.96;100806.19;5055332;28;20098;-67
2021/08/17 11:44:15;;;;;;;8.40;5.70;;;;;;;30.69;27.20;100819.75;5055511;28;20062;-67
2021/08/17 11:47:12;;;;;;;7.97;6.25;;;;;;;31.38;26.16;100826.91;5055138;28;20075;-67
2021/08/17 11:50:01;;;;;;;8.57;5.80;;;;;;;32.50;26.51;100822.41;5056433;28;20135;-67
2021/08/17 11:52:47;;;;;;;7.90;5.43;;;;;;;32.17;27.12;100822.88;5056023;28;20040;-67
2021/08/17 11:55:33;;;;;;;7.20;5.68;;;;;;;34.23;24.21;100825.16;5069255;28;20472;-67
2021/08/17 11:58:20;;;;;;;10.25;6.07;;;;;;;31.39;25.72;100843.19;5069483;28;20064;-67
2021/08/17 12:01:04;;;;;;;9.25;6.13;;;;;;;31.15;28.04;100824.56;5055884;28;20056;-67
2021/08/17 12:03:47;;;;;;;12.85;6.70;;;;;;;29.82;29.56;100834.72;5040723;28;20106;-67
2021/08/17 12:06:31;;;;;;;9.77;6.50;;;;;;;28.31;32.37;100824.25;5056087;28;20124;-66
2021/08/17 12:09:19;;;;;;;7.88;6.15;;;;;;;27.28;32.96;100839.03;5054819;28;20461;-67
2021/08/17 12:12:04;;;;;;;8.35;5.55;;;;;;;28.29;30.65;100837.38;5055922;28;20106;-67
2021/08/17 12:15:07;;;;;;;9.30;6.53;;;;;;;27.94;31.55;100829.28;5040693;28;20056;-67
2021/08/17 12:18:04;;;;;;;9.85;6.75;;;;;;;28.24;30.26;100816.16;5055139;28;20398;-67
2021/08/17 12:20:48;;;;;;;8.10;5.70;;;;;;;28.40;30.75;100812.69;5054600;28;20086;-67
2021/08/17 12:23:44;;;;;;;9.73;5.72;;;;;;;27.77;31.40;100811.97;5054469;28;20535;-67
2021/08/17 12:26:29;;;;;;;8.80;5.90;;;;;;;27.71;31.36;100818.38;5055416;28;20051;-67
2021/08/17 12:29:14;;;;;;;7.95;5.95;;;;;;;27.92;31.57;100804.03;5068806;28;20132;-67
2021/08/17 12:32:14;;;;;;;10.68;6.72;;;;;;;27.03;31.55;100809.16;5040572;28;20052;-67